Time;durP1;ratioP1;P1;durP2;ratioP2;P2;SDS_P1;SDS_P2;PMS_P1;PMS_P2;Temp;Humidity;BMP_temperature;BMP_pressure;BME280_temperature;BME280_humidity;BME280_pressure;Samples;Min_cycle;Max_cycle;Signal;HPM_P1;HPM_P2
2022/01/17 00:00:53;;;;;;;17.48;3.35;;;6.30;99.90;;;;;;4895755;29;20035;-72
2022/01/17 00:03:24;;;;;;;24.25;3.10;;;6.30;99.90;;;;;;4898260;29;20071;-73
2022/01/17 00:05:51;;;;;;;13.25;2.60;;;6.20;99.90;;;;;;4910364;29;20044;-72
2022/01/17 00:08:17;;;;;;;19.38;2.60;;;6.20;99.90;;;;;;4896566;29;20406;-73
2022/01/17 00:10:43;;;;;;;12.75;2.70;;;6.20;99.90;;;;;;4912264;29;20036;-72
2022/01/17 00:13:11;;;;;;;19.02;2.53;;;6.20;99.90;;;;;;4892638;29;20043;-73
2022/01/17 00:15:48;;;;;;;17.73;2.70;;;6.10;99.90;;;;;;4912076;29;20080;-72
2022/01/17 00:20:44;;;;;;;12.88;2.70;;;6.00;99.90;;;;;;4893485;29;20079;-72
2022/01/17 00:23:10;;;;;;;20.02;2.80;;;6.00;99.90;;;;;;4911506;29;20043;-72
2022/01/17 00:25:36;;;;;;;17.52;2.78;;;6.00;99.90;;;;;;4893647;29;20032;-72
2022/01/17 00:28:01;;;;;;;14.98;2.67;;;6.00;99.90;;;;;;4911327;29;20049;-73
2022/01/17 00:30:28;;;;;;;18.08;3.00;;;6.00;99.90;;;;;;4878442;29;20039;-73
2022/01/17 00:32:54;;;;;;;18.33;2.88;;;6.00;99.90;;;;;;4910631;29;20044;-72
2022/01/17 00:35:20;;;;;;;23.35;3.50;;;6.00;99.90;;;;;;4893302;29;20074;-73
2022/01/17 00:37:46;;;;;;;19.27;3.33;;;6.00;99.90;;;;;;4912286;29;20075;-72
2022/01/17 00:40:12;;;;;;;14.50;2.58;;;5.90;99.90;;;;;;4911436;29;20040;-72
2022/01/17 00:42:40;;;;;;;13.57;2.58;;;5.90;99.90;;;;;;4894852;29;20043;-73
2022/01/17 00:45:07;;;;;;;27.20;4.53;;;5.90;99.90;;;;;;4907748;29;20044;-73
2022/01/17 00:47:33;;;;;;;22.40;3.72;;;5.90;99.90;;;;;;4907998;29;20032;-72
2022/01/17 00:49:59;;;;;;;20.50;2.83;;;5.90;99.90;;;;;;4911063;29;20039;-72
2022/01/17 00:52:24;;;;;;;15.40;3.08;;;5.80;99.90;;;;;;4895759;29;20521;-73
2022/01/17 00:54:50;;;;;;;18.08;2.65;;;5.80;99.90;;;;;;4894058;29;20592;-72
2022/01/17 00:57:16;;;;;;;17.27;3.03;;;5.70;99.90;;;;;;4894207;29;20048;-72
2022/01/17 00:59:41;;;;;;;23.52;3.20;;;5.70;99.90;;;;;;4898069;29;20403;-73
2022/01/17 01:02:07;;;;;;;18.77;3.10;;;5.60;99.90;;;;;;4914068;29;20439;-73
2022/01/17 01:04:32;;;;;;;23.52;3.30;;;5.60;99.90;;;;;;4898254;29;20044;-73
2022/01/17 01:06:58;;;;;;;15.40;2.83;;;5.60;99.90;;;;;;4901958;29;20070;-73
2022/01/17 01:09:27;;;;;;;16.55;2.80;;;5.70;99.90;;;;;;4897236;29;20078;-73
2022/01/17 01:11:53;;;;;;;23.05;3.40;;;5.70;99.90;;;;;;4910994;29;20044;-73
2022/01/17 01:14:19;;;;;;;20.38;2.60;;;5.80;99.90;;;;;;4879443;29;20052;-73
2022/01/17 01:16:44;;;;;;;25.20;3.15;;;5.80;99.90;;;;;;4908331;29;20485;-73
2022/01/17 01:19:27;;;;;;;21.70;2.70;;;5.90;99.90;;;;;;4908960;29;20050;-73
2022/01/17 01:27:39;;;;;;;;;;;5.90;99.90;;;;;;4899553;29;20090;-73
2022/01/17 01:27:42;;;;;;;16.83;3.10;;;5.80;99.90;;;;;;4891283;29;20086;-73
2022/01/17 01:30:11;;;;;;;21.33;2.70;;;5.80;99.90;;;;;;4908064;29;20115;-72
2022/01/17 01:32:46;;;;;;;16.42;2.65;;;5.70;99.90;;;;;;4908948;29;20062;-72
2022/01/17 01:35:15;;;;;;;20.75;3.15;;;5.60;99.90;;;;;;4907917;29;20080;-73
2022/01/17 01:37:44;;;;;;;22.10;2.95;;;5.50;99.90;;;;;;4911274;29;20032;-73
2022/01/17 01:40:10;;;;;;;19.70;2.90;;;5.50;99.90;;;;;;4909452;29;20043;-73
2022/01/17 01:42:36;;;;;;;19.10;2.97;;;5.50;99.90;;;;;;4910725;29;20099;-73
2022/01/17 01:45:05;;;;;;;14.80;2.40;;;5.30;99.90;;;;;;4876385;29;20364;-73
2022/01/17 01:47:31;;;;;;;22.30;3.55;;;5.30;99.90;;;;;;4910905;29;20119;-72
2022/01/17 01:49:56;;;;;;;20.30;3.05;;;5.30;99.90;;;;;;4910929;29;20313;-72
2022/01/17 01:52:24;;;;;;;21.50;2.80;;;5.40;99.90;;;;;;4910931;29;20459;-73
2022/01/17 01:54:49;;;;;;;16.63;3.33;;;5.30;99.90;;;;;;4910665;29;20075;-72
2022/01/17 01:57:15;;;;;;;19.42;3.05;;;5.30;99.90;;;;;;4909107;29;20079;-72
2022/01/17 01:59:41;;;;;;;25.88;2.95;;;5.30;99.90;;;;;;4891405;29;20952;-73
2022/01/17 02:02:07;;;;;;;19.23;3.38;;;5.30;99.90;;;;;;4881435;29;20039;-73
2022/01/17 02:04:33;;;;;;;15.32;2.63;;;5.30;99.90;;;;;;4911929;29;20036;-73
2022/01/17 02:06:59;;;;;;;20.60;2.97;;;5.30;99.90;;;;;;4913519;29;20381;-73
2022/01/17 02:09:24;;;;;;;18.63;2.92;;;5.30;99.90;;;;;;4897281;29;20455;-73
2022/01/17 02:11:51;;;;;;;23.70;3.75;;;5.30;99.90;;;;;;4880119;29;20438;-73
2022/01/17 02:14:17;;;;;;;19.02;2.60;;;5.40;99.90;;;;;;4910955;29;20044;-73
2022/01/17 02:16:44;;;;;;;17.52;3.03;;;5.30;99.90;;;;;;4888975;29;20040;-73
2022/01/17 02:19:10;;;;;;;24.98;3.35;;;5.40;99.90;;;;;;4910153;29;20099;-72
2022/01/17 02:21:46;;;;;;;21.00;2.97;;;5.40;99.90;;;;;;4893950;29;20079;-72
2022/01/17 02:24:16;;;;;;;21.38;3.05;;;5.40;99.90;;;;;;4877027;29;20040;-72
2022/01/17 02:26:44;;;;;;;22.92;3.60;;;5.30;99.90;;;;;;4908699;29;20054;-72
2022/01/17 02:29:10;;;;;;;14.25;2.47;;;5.30;99.90;;;;;;4907482;29;20036;-73
2022/01/17 02:31:36;;;;;;;23.77;3.00;;;5.30;99.90;;;;;;4892746;29;20040;-73
2022/01/17 02:34:03;;;;;;;21.75;2.97;;;5.30;99.90;;;;;;4893878;29;20075;-73
2022/01/17 02:36:30;;;;;;;16.42;3.22;;;5.20;99.90;;;;;;4907952;29;20087;-73
2022/01/17 02:38:55;;;;;;;17.63;2.80;;;5.20;99.90;;;;;;4907864;29;20127;-73
2022/01/17 02:41:21;;;;;;;17.10;3.05;;;5.20;99.90;;;;;;4891997;29;20126;-72
2022/01/17 02:43:47;;;;;;;18.30;3.28;;;5.20;99.90;;;;;;4895550;29;20048;-73
2022/01/17 02:48:40;;;;;;;19.63;3.00;;;5.10;99.90;;;;;;4893170;29;20072;-73
2022/01/17 02:51:07;;;;;;;18.63;2.97;;;5.10;99.90;;;;;;4891694;29;20040;-71
2022/01/17 02:53:33;;;;;;;20.42;2.80;;;5.10;99.90;;;;;;4893107;29;20046;-72
2022/01/17 02:56:05;;;;;;;26.20;3.63;;;5.10;99.90;;;;;;4887209;29;20052;-73
2022/01/17 02:58:33;;;;;;;20.05;3.08;;;5.00;99.90;;;;;;4893394;29;20044;-73
2022/01/17 03:00:59;;;;;;;18.30;3.13;;;5.00;99.90;;;;;;4892394;29;20044;-73
2022/01/17 03:03:28;;;;;;;19.02;3.28;;;5.00;99.90;;;;;;4890634;29;20140;-72
2022/01/17 03:05:55;;;;;;;20.63;2.72;;;4.90;99.90;;;;;;4895750;29;20044;-73
2022/01/17 03:08:24;;;;;;;29.88;3.38;;;5.00;99.90;;;;;;4909139;29;20048;-72
2022/01/17 03:10:51;;;;;;;20.02;2.53;;;5.00;99.90;;;;;;4910849;29;20041;-73
2022/01/17 03:13:25;;;;;;;18.08;2.88;;;4.90;99.90;;;;;;4883505;29;20047;-73
2022/01/17 03:15:57;;;;;;;20.00;3.03;;;4.90;99.90;;;;;;4915049;29;20033;-72
2022/01/17 03:18:26;;;;;;;13.95;3.13;;;4.90;99.90;;;;;;4894705;29;20082;-73
2022/01/17 03:20:51;;;;;;;17.60;2.88;;;4.90;99.90;;;;;;4891404;29;20044;-72
2022/01/17 03:23:17;;;;;;;18.52;2.47;;;4.90;99.90;;;;;;4889457;29;20091;-72
2022/01/17 03:25:43;;;;;;;24.40;3.45;;;4.90;99.90;;;;;;4905602;29;20074;-73
2022/01/17 03:28:09;;;;;;;17.00;2.85;;;4.80;99.90;;;;;;4908075;29;20043;-72
2022/01/17 03:30:36;;;;;;;19.45;3.08;;;4.80;99.90;;;;;;4907507;29;20051;-72
2022/01/17 03:33:04;;;;;;;25.45;3.53;;;4.90;99.90;;;;;;4903458;29;20499;-72
2022/01/17 03:35:30;;;;;;;23.63;3.35;;;4.80;99.90;;;;;;4903419;29;20085;-73
2022/01/17 03:37:56;;;;;;;19.35;3.22;;;4.90;99.90;;;;;;4907134;29;20044;-73
2022/01/17 03:40:21;;;;;;;21.55;3.28;;;4.90;99.90;;;;;;4885911;29;20052;-73
2022/01/17 03:42:47;;;;;;;17.50;3.17;;;4.90;99.90;;;;;;4888989;29;20044;-73
2022/01/17 03:45:13;;;;;;;22.25;2.85;;;4.90;99.90;;;;;;4907433;29;20056;-72
2022/01/17 03:47:41;;;;;;;19.80;2.83;;;5.00;99.90;;;;;;4892465;29;20044;-73
2022/01/17 03:50:12;;;;;;;22.80;3.65;;;4.90;99.90;;;;;;4906344;29;20539;-73
2022/01/17 03:52:40;;;;;;;22.35;3.35;;;4.90;99.90;;;;;;4903609;29;20115;-72
2022/01/17 03:55:07;;;;;;;16.98;2.85;;;4.90;99.90;;;;;;4906123;29;20040;-73
2022/01/17 03:57:32;;;;;;;20.63;3.28;;;5.00;99.90;;;;;;4906678;29;20071;-73
2022/01/17 03:59:58;;;;;;;20.80;3.10;;;5.00;99.90;;;;;;4907012;29;20083;-73
2022/01/17 04:02:24;;;;;;;23.02;3.38;;;5.10;99.90;;;;;;4887276;29;20051;-73
2022/01/17 04:04:49;;;;;;;17.20;2.67;;;5.20;99.90;;;;;;4892474;29;20048;-73
2022/01/17 04:07:15;;;;;;;14.50;3.05;;;5.10;99.90;;;;;;4891437;29;20040;-73
2022/01/17 04:09:40;;;;;;;14.18;2.40;;;5.20;99.90;;;;;;4892405;29;20043;-73
2022/01/17 04:12:06;;;;;;;15.15;3.05;;;5.20;99.90;;;;;;4893998;29;20040;-73
2022/01/17 04:14:35;;;;;;;24.45;3.25;;;5.20;99.90;;;;;;4895308;29;20044;-73
2022/01/17 04:17:01;;;;;;;16.52;2.92;;;5.20;99.90;;;;;;4894656;29;20060;-73
2022/01/17 04:19:27;;;;;;;15.50;2.47;;;5.20;99.90;;;;;;4910025;29;20083;-73
2022/01/17 04:21:53;;;;;;;20.02;3.13;;;5.20;99.90;;;;;;4895155;29;20219;-73
2022/01/17 04:24:18;;;;;;;21.58;2.58;;;5.20;99.90;;;;;;4908469;29;20055;-73
2022/01/17 04:26:45;;;;;;;21.63;2.80;;;5.20;99.90;;;;;;4894048;29;20135;-73
2022/01/17 04:29:11;;;;;;;19.05;2.50;;;5.10;99.90;;;;;;4892233;29;20071;-73
2022/01/17 04:31:37;;;;;;;21.17;3.00;;;5.10;99.90;;;;;;4893798;29;20040;-73
2022/01/17 04:34:03;;;;;;;17.30;3.10;;;5.10;99.90;;;;;;4895130;29;20113;-73
2022/01/17 04:36:29;;;;;;;19.25;3.00;;;5.10;99.90;;;;;;4891638;29;20051;-73
2022/01/17 04:38:55;;;;;;;18.70;2.33;;;5.10;99.90;;;;;;4892672;29;20044;-72
2022/01/17 04:41:27;;;;;;;19.23;2.78;;;5.10;99.90;;;;;;4895205;29;20047;-73
2022/01/17 04:45:06;;;;;;;;;;;5.20;99.90;;;;;;4896765;29;20040;-73
2022/01/17 04:46:42;;;;;;;22.80;3.03;;;5.10;99.90;;;;;;4896662;29;19931;-73
2022/01/17 04:49:07;;;;;;;16.13;2.15;;;5.10;99.90;;;;;;4892581;29;20520;-72
2022/01/17 04:51:33;;;;;;;19.75;3.35;;;5.20;99.90;;;;;;4894820;29;20079;-73
2022/01/17 04:54:22;;;;;;;16.95;2.60;;;5.20;99.90;;;;;;4892137;29;20177;-73
2022/01/17 04:56:44;;;;;;;21.23;2.78;;;5.30;99.90;;;;;;4893944;29;20099;-73
2022/01/17 04:59:10;;;;;;;14.65;2.42;;;5.30;99.90;;;;;;4891171;29;20040;-72
2022/01/17 05:01:36;;;;;;;17.70;3.22;;;5.40;99.90;;;;;;4912694;29;20051;-72
2022/01/17 05:04:01;;;;;;;22.10;3.15;;;5.30;99.90;;;;;;4891224;29;20403;-72
2022/01/17 05:06:27;;;;;;;17.77;2.90;;;5.30;99.90;;;;;;4875932;29;20328;-73
2022/01/17 05:08:52;;;;;;;20.17;2.90;;;5.30;99.90;;;;;;4915897;29;20036;-72
2022/01/17 05:11:18;;;;;;;21.58;2.75;;;5.30;99.90;;;;;;4909545;29;20040;-72
2022/01/17 05:13:48;;;;;;;19.92;2.92;;;5.40;99.90;;;;;;4889722;29;20095;-72
2022/01/17 05:16:15;;;;;;;23.38;3.80;;;5.40;99.90;;;;;;4904231;29;20051;-73
2022/01/17 05:21:07;;;;;;;20.92;2.85;;;5.50;99.90;;;;;;4909087;29;20422;-73
2022/01/17 05:23:32;;;;;;;20.10;3.75;;;5.60;99.90;;;;;;4895452;29;20131;-73
2022/01/17 05:25:58;;;;;;;19.90;4.00;;;5.60;99.90;;;;;;4896378;29;20443;-73
2022/01/17 05:28:24;;;;;;;17.85;2.80;;;5.70;99.90;;;;;;4893798;29;20183;-73
2022/01/17 05:30:49;;;;;;;21.35;3.03;;;5.70;99.90;;;;;;4877661;29;20636;-73
2022/01/17 05:33:15;;;;;;;15.02;2.75;;;5.80;99.90;;;;;;4895311;29;20070;-74
2022/01/17 05:35:41;;;;;;;17.80;3.42;;;5.80;99.90;;;;;;4910745;29;20411;-72
2022/01/17 05:38:06;;;;;;;23.65;3.30;;;5.80;99.90;;;;;;4895039;29;20095;-72
2022/01/17 05:40:32;;;;;;;17.85;3.63;;;5.90;99.90;;;;;;4894797;29;20079;-72
2022/01/17 05:42:58;;;;;;;22.73;3.90;;;5.80;99.90;;;;;;4911313;29;20384;-72
2022/01/17 05:45:24;;;;;;;24.23;3.35;;;5.80;99.90;;;;;;4893119;29;20500;-72
2022/01/17 05:47:49;;;;;;;17.90;3.00;;;5.90;99.90;;;;;;4908126;29;20044;-72
2022/01/17 05:50:16;;;;;;;23.40;3.38;;;5.90;99.90;;;;;;4906492;29;20439;-72
2022/01/17 05:52:43;;;;;;;21.52;3.70;;;6.00;99.90;;;;;;4912609;29;20048;-72
2022/01/17 05:55:11;;;;;;;18.42;3.25;;;6.00;99.90;;;;;;4908017;29;20036;-72
2022/01/17 05:57:37;;;;;;;22.33;4.15;;;6.00;99.90;;;;;;4908871;29;20036;-73
2022/01/17 06:00:07;;;;;;;26.30;4.15;;;6.10;99.90;;;;;;4904978;29;20055;-73
2022/01/17 06:02:33;;;;;;;19.73;4.05;;;6.00;99.90;;;;;;4909382;29;20424;-72
2022/01/17 06:04:58;;;;;;;22.67;3.92;;;6.10;99.90;;;;;;4888679;29;20048;-72
2022/01/17 06:07:24;;;;;;;19.88;3.75;;;6.10;99.90;;;;;;4893434;29;20499;-72
2022/01/17 06:09:49;;;;;;;21.40;4.30;;;6.10;99.90;;;;;;4907397;29;20047;-74
2022/01/17 06:12:15;;;;;;;19.73;3.67;;;6.10;99.90;;;;;;4905928;29;20044;-73
2022/01/17 06:14:41;;;;;;;17.35;4.00;;;6.10;99.90;;;;;;4891059;29;20044;-73
2022/01/17 06:17:07;;;;;;;23.55;4.63;;;6.10;99.90;;;;;;4889484;29;20059;-73
2022/01/17 06:19:33;;;;;;;24.02;5.45;;;6.20;99.90;;;;;;4908358;29;20048;-73
2022/01/17 06:21:58;;;;;;;15.77;4.45;;;6.20;99.90;;;;;;4891923;29;20487;-73
2022/01/17 06:24:24;;;;;;;21.20;4.57;;;6.30;99.90;;;;;;4889585;29;20043;-73
2022/01/17 06:26:50;;;;;;;22.25;5.25;;;6.30;99.90;;;;;;4875710;29;20032;-72
2022/01/17 06:29:16;;;;;;;23.13;4.95;;;6.30;99.90;;;;;;4891444;29;20040;-75
2022/01/17 06:31:43;;;;;;;26.92;5.07;;;6.30;99.90;;;;;;4908262;29;20872;-74
2022/01/17 06:34:10;;;;;;;23.58;6.10;;;6.30;99.90;;;;;;4875931;29;20554;-72
2022/01/17 06:36:37;;;;;;;18.50;5.15;;;6.40;99.90;;;;;;4902123;29;20205;-73
2022/01/17 06:39:03;;;;;;;27.30;5.78;;;6.30;99.90;;;;;;4894192;29;20483;-72
2022/01/17 06:41:30;;;;;;;24.27;5.47;;;6.30;99.90;;;;;;4891511;29;20067;-72
2022/01/17 06:43:55;;;;;;;22.88;6.05;;;6.30;99.90;;;;;;4890685;29;20508;-72
2022/01/17 06:46:21;;;;;;;21.42;6.07;;;6.30;99.90;;;;;;4907759;29;20040;-72
2022/01/17 06:48:47;;;;;;;22.08;6.55;;;6.30;99.90;;;;;;4899316;29;20445;-71
2022/01/17 06:51:14;;;;;;;23.75;6.72;;;6.30;99.90;;;;;;4909041;29;20127;-72
2022/01/17 06:53:41;;;;;;;29.02;7.03;;;6.40;99.90;;;;;;4875964;29;20039;-72
2022/01/17 06:56:07;;;;;;;24.38;6.40;;;6.40;99.90;;;;;;4908633;29;20044;-71
2022/01/17 06:58:35;;;;;;;29.52;7.07;;;6.40;99.90;;;;;;4909208;29;20055;-73
2022/01/17 07:01:00;;;;;;;24.92;6.75;;;6.30;99.90;;;;;;4908399;29;20077;-73
2022/01/17 07:03:26;;;;;;;30.80;7.95;;;6.40;99.90;;;;;;4891879;29;20135;-73
2022/01/17 07:05:52;;;;;;;27.55;6.88;;;6.50;99.90;;;;;;4891515;29;20051;-73
2022/01/17 07:08:17;;;;;;;25.85;7.38;;;6.40;99.90;;;;;;4911122;29;20058;-74
2022/01/17 07:10:43;;;;;;;24.75;7.47;;;6.50;99.90;;;;;;4893730;29;20499;-72
2022/01/17 07:13:10;;;;;;;23.77;6.78;;;6.50;99.90;;;;;;4905784;29;20064;-72
2022/01/17 07:15:36;;;;;;;29.33;7.80;;;6.40;99.90;;;;;;4906492;29;20055;-73
2022/01/17 07:18:02;;;;;;;30.38;7.43;;;6.40;99.90;;;;;;4907873;29;20040;-73
2022/01/17 07:20:28;;;;;;;20.70;6.03;;;6.40;99.90;;;;;;4906802;29;20043;-73
2022/01/17 07:22:53;;;;;;;23.23;6.85;;;6.50;99.90;;;;;;4906737;29;20395;-73
2022/01/17 07:25:19;;;;;;;27.95;7.65;;;6.50;99.90;;;;;;4889292;29;20048;-73
2022/01/17 07:27:45;;;;;;;34.42;7.85;;;6.40;99.90;;;;;;4892262;29;20032;-73
2022/01/17 07:30:11;;;;;;;27.77;7.70;;;6.40;99.90;;;;;;4905483;29;20041;-73
2022/01/17 07:32:37;;;;;;;36.05;8.30;;;6.40;99.90;;;;;;4888246;29;20037;-73
2022/01/17 07:35:08;;;;;;;32.22;8.88;;;6.40;99.90;;;;;;4890549;29;20047;-73
2022/01/17 07:37:34;;;;;;;29.42;7.30;;;6.40;99.90;;;;;;4890575;29;20090;-72
2022/01/17 07:40:00;;;;;;;32.75;7.75;;;6.40;99.90;;;;;;4889533;29;20526;-71
2022/01/17 07:42:25;;;;;;;26.10;8.35;;;6.40;99.90;;;;;;4890651;29;20056;-72
2022/01/17 07:44:55;;;;;;;30.35;7.80;;;6.40;99.90;;;;;;4878166;29;20044;-72
2022/01/17 07:47:38;;;;;;;29.15;7.70;;;6.40;99.90;;;;;;4898316;29;20036;-73
2022/01/17 07:50:06;;;;;;;36.92;8.73;;;6.40;99.90;;;;;;4892866;29;20131;-72
2022/01/17 07:52:32;;;;;;;38.67;8.85;;;6.40;99.90;;;;;;4906272;29;20051;-72
2022/01/17 07:54:58;;;;;;;34.13;8.68;;;6.40;99.90;;;;;;4896576;29;20127;-72
2022/01/17 07:57:23;;;;;;;42.03;8.80;;;6.30;99.90;;;;;;4912460;29;20143;-72
2022/01/17 07:59:49;;;;;;;37.95;8.75;;;6.30;99.90;;;;;;4894326;29;20096;-72
2022/01/17 08:02:15;;;;;;;33.25;9.18;;;6.40;99.90;;;;;;4894569;29;20054;-72
2022/01/17 08:04:40;;;;;;;39.47;8.25;;;6.40;99.90;;;;;;4908363;29;20040;-73
2022/01/17 08:07:07;;;;;;;31.15;7.60;;;6.30;99.90;;;;;;4907313;29;20044;-72
2022/01/17 08:09:34;;;;;;;32.20;7.93;;;6.40;99.90;;;;;;4877176;29;20088;-73
2022/01/17 08:12:01;;;;;;;41.40;7.93;;;6.40;99.90;;;;;;4891332;29;20040;-73
2022/01/17 08:14:26;;;;;;;36.70;8.23;;;6.40;99.90;;;;;;4914483;29;20079;-72
2022/01/17 08:16:53;;;;;;;28.23;6.30;;;6.40;99.90;;;;;;4900235;29;20036;-73
2022/01/17 08:19:19;;;;;;;40.85;7.75;;;6.50;99.90;;;;;;4893753;29;20131;-72
2022/01/17 08:21:48;;;;;;;32.70;7.95;;;6.50;99.90;;;;;;4908216;29;20039;-73
2022/01/17 08:24:14;;;;;;;33.78;6.32;;;6.50;99.90;;;;;;4907981;29;20044;-73
2022/01/17 08:26:44;;;;;;;30.02;6.13;;;6.50;99.90;;;;;;4896016;29;20099;-73
2022/01/17 08:29:10;;;;;;;37.67;6.22;;;6.60;99.90;;;;;;4894059;29;20135;-73
2022/01/17 08:31:36;;;;;;;29.23;5.80;;;6.60;99.90;;;;;;4891800;29;20055;-73
2022/01/17 08:34:02;;;;;;;40.25;5.97;;;6.60;99.90;;;;;;4896407;29;20040;-73
2022/01/17 08:36:27;;;;;;;32.95;6.00;;;6.60;99.90;;;;;;4908036;29;20048;-73
2022/01/17 08:38:53;;;;;;;35.35;6.00;;;6.70;99.90;;;;;;4894726;29;20127;-73
2022/01/17 08:41:20;;;;;;;32.63;5.90;;;6.70;99.90;;;;;;4897476;29;20103;-73
2022/01/17 08:43:46;;;;;;;34.58;5.82;;;6.70;99.90;;;;;;4898569;29;20127;-72
2022/01/17 08:46:12;;;;;;;31.05;5.30;;;6.70;99.90;;;;;;4899356;29;20036;-72
2022/01/17 08:48:39;;;;;;;31.67;5.68;;;6.70;99.90;;;;;;4915922;29;20052;-72
2022/01/17 08:51:05;;;;;;;36.80;5.90;;;6.70;99.90;;;;;;4899971;29;20562;-72
2022/01/17 08:53:32;;;;;;;35.08;5.35;;;6.70;99.90;;;;;;4913391;29;20051;-72
2022/01/17 08:55:58;;;;;;;36.85;5.82;;;6.80;99.90;;;;;;4900349;29;20135;-73
2022/01/17 08:58:23;;;;;;;41.83;6.72;;;6.80;99.90;;;;;;4912829;29;20131;-74
2022/01/17 09:00:50;;;;;;;31.08;6.05;;;6.90;99.90;;;;;;4900821;29;20055;-72
2022/01/17 09:03:16;;;;;;;33.17;4.88;;;6.90;99.90;;;;;;4916909;29;20048;-72
2022/01/17 09:05:42;;;;;;;35.97;5.05;;;7.10;99.90;;;;;;4915383;29;20047;-72
2022/01/17 09:08:09;;;;;;;35.22;6.00;;;7.00;99.90;;;;;;4900203;29;20040;-72
2022/01/17 09:10:35;;;;;;;33.35;5.07;;;7.00;99.90;;;;;;4916628;29;20522;-72
2022/01/17 09:13:02;;;;;;;37.97;5.00;;;7.10;99.90;;;;;;4900096;29;20068;-73
2022/01/17 09:15:28;;;;;;;39.55;5.90;;;7.10;99.90;;;;;;4884614;29;20047;-72
2022/01/17 09:17:53;;;;;;;32.75;5.05;;;7.10;99.90;;;;;;4899865;29;20123;-73
2022/01/17 09:20:19;;;;;;;27.02;4.60;;;7.10;99.90;;;;;;4915771;29;20082;-73
2022/01/17 09:22:44;;;;;;;33.60;4.80;;;7.10;99.90;;;;;;4900635;29;20052;-73
2022/01/17 09:25:11;;;;;;;35.10;4.75;;;7.30;99.90;;;;;;4916694;29;20036;-72
2022/01/17 09:27:37;;;;;;;31.95;4.55;;;7.20;99.90;;;;;;4896974;29;20052;-73
2022/01/17 09:30:09;;;;;;;34.83;5.68;;;7.30;99.90;;;;;;4905782;29;20044;-73
2022/01/17 09:32:36;;;;;;;34.88;4.82;;;7.30;99.90;;;;;;4899482;29;20054;-73
2022/01/17 09:35:01;;;;;;;41.05;5.45;;;7.40;99.90;;;;;;4899677;29;20056;-72
2022/01/17 09:37:27;;;;;;;37.17;4.88;;;7.50;99.90;;;;;;4915711;29;20054;-73
2022/01/17 09:39:53;;;;;;;31.02;5.38;;;7.50;99.90;;;;;;4899950;29;20171;-73
2022/01/17 09:42:19;;;;;;;37.65;5.40;;;7.50;99.90;;;;;;4915105;29;20403;-72
2022/01/17 09:44:44;;;;;;;40.05;5.35;;;7.60;99.90;;;;;;4899218;29;20055;-73
2022/01/17 09:47:11;;;;;;;38.90;6.05;;;7.70;99.90;;;;;;4899313;29;20055;-72
2022/01/17 09:49:51;;;;;;;38.22;5.20;;;7.60;99.90;;;;;;4894762;29;20050;-72
2022/01/17 09:54:52;;;;;;;40.17;5.63;;;7.80;99.90;;;;;;4915173;29;20518;-73
2022/01/17 09:57:19;;;;;;;34.80;4.82;;;7.90;99.90;;;;;;4903216;29;20410;-72
2022/01/17 09:59:45;;;;;;;25.50;4.65;;;7.90;99.90;;;;;;4917757;29;20761;-73
2022/01/17 10:02:13;;;;;;;35.70;5.90;;;8.00;99.90;;;;;;4899089;29;20411;-72
2022/01/17 10:04:39;;;;;;;34.08;4.65;;;8.10;99.90;;;;;;4914597;29;20055;-72
2022/01/17 10:07:06;;;;;;;35.92;5.60;;;8.10;99.90;;;;;;4913923;29;20063;-73
2022/01/17 10:09:33;;;;;;;30.42;5.53;;;8.20;99.90;;;;;;4899045;29;20372;-72
2022/01/17 10:12:03;;;;;;;36.67;5.00;;;8.20;99.90;;;;;;4902499;29;20047;-72
2022/01/17 10:14:35;;;;;;;38.42;5.70;;;8.20;99.90;;;;;;4906653;29;20411;-73
2022/01/17 10:17:03;;;;;;;31.63;5.10;;;8.20;99.90;;;;;;4899102;29;20419;-73
2022/01/17 10:19:29;;;;;;;35.88;5.80;;;8.30;99.90;;;;;;4898919;29;20095;-73
2022/01/17 10:21:58;;;;;;;39.08;6.35;;;8.40;99.90;;;;;;4898888;29;20138;-72
2022/01/17 10:27:19;;;;;;;36.83;6.63;;;8.50;99.90;;;;;;4880499;29;20052;-73
2022/01/17 10:35:26;;;;;;;36.30;5.22;;;8.50;99.90;;;;;;4915757;29;20104;-73
2022/01/17 10:37:55;;;;;;;36.45;6.57;;;8.60;99.90;;;;;;4898617;29;20036;-73
2022/01/17 10:40:21;;;;;;;46.85;7.15;;;8.60;99.90;;;;;;4902509;29;20035;-73
2022/01/17 10:42:48;;;;;;;42.22;5.68;;;8.70;99.90;;;;;;4907571;29;20566;-73
2022/01/17 10:45:19;;;;;;;40.80;6.40;;;8.70;99.90;;;;;;4898576;29;20066;-73
2022/01/17 10:47:47;;;;;;;30.23;5.35;;;8.80;99.90;;;;;;4898708;29;20040;-73
2022/01/17 10:50:16;;;;;;;34.63;5.53;;;8.80;99.90;;;;;;4912353;29;20036;-73
2022/01/17 10:52:46;;;;;;;37.20;6.13;;;8.90;99.90;;;;;;4913926;29;20040;-73
2022/01/17 10:55:24;;;;;;;40.92;6.75;;;8.90;99.90;;;;;;4890114;29;20527;-72
2022/01/17 10:57:56;;;;;;;37.55;5.82;;;9.00;99.90;;;;;;4882756;29;20075;-71
2022/01/17 11:00:28;;;;;;;35.92;5.43;;;9.00;99.90;;;;;;4914078;29;20040;-72
2022/01/17 11:02:57;;;;;;;35.88;5.65;;;9.10;99.90;;;;;;4915331;29;20044;-72
2022/01/17 11:05:23;;;;;;;38.47;5.93;;;9.20;99.90;;;;;;4910078;29;20047;-72
2022/01/17 11:07:56;;;;;;;40.72;5.90;;;9.30;99.90;;;;;;4893987;29;20057;-73
2022/01/17 11:10:25;;;;;;;50.78;7.70;;;9.40;99.90;;;;;;4913539;29;20044;-73
2022/01/17 11:12:56;;;;;;;36.30;6.05;;;9.40;99.90;;;;;;4915479;29;20051;-72
2022/01/17 11:15:23;;;;;;;38.83;7.60;;;9.50;99.90;;;;;;4915901;29;20071;-71
2022/01/17 11:17:56;;;;;;;42.90;7.18;;;9.50;99.90;;;;;;4916522;29;20051;-72
2022/01/17 11:20:25;;;;;;;43.58;9.23;;;9.60;99.90;;;;;;4902280;29;20040;-71
2022/01/17 11:22:53;;;;;;;40.17;7.30;;;9.50;99.90;;;;;;4928412;29;20119;-71
2022/01/17 11:25:32;;;;;;;40.67;6.90;;;9.50;99.90;;;;;;4902034;29;20119;-71
2022/01/17 11:27:59;;;;;;;46.45;9.52;;;9.50;99.90;;;;;;4901644;29;20084;-73
2022/01/17 11:30:26;;;;;;;47.75;8.27;;;9.50;99.90;;;;;;4913389;29;20039;-73
2022/01/17 11:32:55;;;;;;;40.95;8.98;;;9.50;99.90;;;;;;4901349;29;20051;-73
2022/01/17 11:35:22;;;;;;;44.38;8.88;;;9.50;99.90;;;;;;4901624;29;20051;-73
2022/01/17 11:37:53;;;;;;;45.10;10.57;;;9.50;99.90;;;;;;4922106;29;20115;-73
2022/01/17 11:40:32;;;;;;;40.90;7.60;;;9.60;99.90;;;;;;4916275;29;20032;-73
2022/01/17 11:42:59;;;;;;;47.55;9.23;;;9.70;99.90;;;;;;4900596;29;20040;-73
2022/01/17 11:45:24;;;;;;;48.85;9.05;;;9.90;99.90;;;;;;4901649;29;20076;-72
2022/01/17 11:48:02;;;;;;;48.88;8.10;;;9.90;99.90;;;;;;4901813;29;20079;-73
2022/01/17 11:50:32;;;;;;;41.30;8.18;;;10.10;99.90;;;;;;4894069;29;20064;-71
2022/01/17 11:53:19;;;;;;;44.40;7.57;;;10.20;99.90;;;;;;4919097;29;20047;-72
2022/01/17 11:55:47;;;;;;;41.60;7.55;;;10.30;99.90;;;;;;4901150;29;20419;-72
2022/01/17 11:58:18;;;;;;;49.25;10.30;;;10.40;99.90;;;;;;4902058;29;20051;-73
2022/01/17 12:00:45;;;;;;;49.40;10.98;;;10.40;99.90;;;;;;4894301;29;20044;-72
2022/01/17 12:03:22;;;;;;;51.63;8.57;;;10.40;99.90;;;;;;4910380;29;20048;-72
2022/01/17 12:05:48;;;;;;;39.30;6.50;;;10.50;99.90;;;;;;4896808;29;20042;-72
2022/01/17 12:11:07;;;;;;;43.22;7.70;;;10.80;99.90;;;;;;5024842;23;20060;-75
2022/01/17 12:13:40;;;;;;;;;;;11.00;99.90;;;;;;4969929;28;20064;-77
2022/01/17 12:16:13;;;;;;;38.63;8.60;;;11.10;99.90;;;;;;4987496;28;19929;-76
2022/01/17 12:18:40;;;;;;;39.38;7.15;;;11.10;99.90;;;;;;4987989;28;20178;-76
2022/01/17 12:21:19;;;;;;;43.97;7.20;;;11.00;99.90;;;;;;4972837;28;20138;-76
2022/01/17 12:23:45;;;;;;;40.67;6.82;;;10.90;99.90;;;;;;4993163;28;20042;-77
2022/01/17 12:26:30;;;;;;;39.20;7.30;;;10.90;99.90;;;;;;4993709;28;20049;-77
2022/01/17 12:28:58;;;;;;;46.60;7.32;;;10.80;99.90;;;;;;4972601;28;20042;-76
2022/01/17 12:31:44;;;;;;;39.97;6.80;;;10.60;99.90;;;;;;4991304;28;20042;-76
2022/01/17 12:34:20;;;;;;;41.28;6.88;;;10.60;99.90;;;;;;4987306;28;20538;-76
2022/01/17 12:36:47;;;;;;;40.20;7.18;;;10.50;99.90;;;;;;4971738;28;20034;-76
2022/01/17 12:39:24;;;;;;;36.08;7.15;;;10.50;99.90;;;;;;4986862;28;20065;-77
2022/01/17 12:41:59;;;;;;;30.55;6.00;;;10.50;99.90;;;;;;4995681;28;20072;-76
2022/01/17 12:44:27;;;;;;;35.53;6.68;;;10.50;99.90;;;;;;4994154;28;20046;-76
2022/01/17 12:46:58;;;;;;;39.92;6.78;;;10.60;99.90;;;;;;4967043;28;20030;-83
2022/01/17 12:49:24;;;;;;;36.97;7.10;;;10.80;99.90;;;;;;4979925;28;20166;-80
2022/01/17 12:51:52;;;;;;;37.08;6.72;;;11.10;99.90;;;;;;4976645;28;20066;-80
2022/01/17 12:54:24;;;;;;;36.72;6.63;;;11.10;99.90;;;;;;4978532;28;20049;-78
2022/01/17 12:56:54;;;;;;;44.22;8.10;;;11.10;99.90;;;;;;4959122;28;20042;-79
2022/01/17 12:59:19;;;;;;;29.63;7.90;;;11.00;99.90;;;;;;4996100;28;20070;-78
2022/01/17 13:01:57;;;;;;;68.32;34.97;;;11.00;99.90;;;;;;4979410;28;20057;-79
2022/01/17 13:04:23;;;;;;;39.10;8.98;;;10.90;99.90;;;;;;4973546;28;20511;-76
2022/01/17 13:06:52;;;;;;;39.53;9.82;;;10.80;99.90;;;;;;4971966;28;20141;-76
2022/01/17 13:09:21;;;;;;;38.22;8.73;;;10.80;99.90;;;;;;4989959;28;20074;-75
2022/01/17 13:11:48;;;;;;;48.70;7.75;;;10.70;99.90;;;;;;4986525;28;20035;-75